EGYM

RAF Marham Airport

Marham, United Kingdom
METAR EGYM 241350Z 32007KT 9999 FEW030 15/01 Q1037 BLU NOSIG
Observed Flight Rules
Sep-24 @ 13:50 UTC (21 minutes ago) Visual Flight Rules
Wind Visibility Clouds
320° at 7 knots 10,000+ meters
  • Few at 3,000' AGL
Temperatures Readings
Current 15°C / 59°F
Dewpoint 1°C / 34°F
Humidity 39%
Altimeter 30.62" Hg
Pressure 1037 hPa
Elevation 23
METAR EGYM 241350Z 32007KT 9999 FEW030 15/01 Q1037 BLU NOSIG
Observed Flight Rules
Sep-24 @ 13:50 UTC
(21 minutes ago)
VFR
Wind Visibility
320° at 7 knots 10,000+ meters
Clouds
  • Few at 3,000' AGL
Temperature Dewpoint
15°C / 59°F 1°C / 34°F
Humidity Altimeter Pressure
39% 30.62" Hg 1037 hPa